sensor_id;sensor_type;location;lat;lon;timestamp;pressure;altitude;pressure_sealevel;temperature;humidity
43125;BME280;49182;50.788;7.318;2023-02-13T00:01:01;103000.22;;;8.64;82.83
43125;BME280;49182;50.788;7.318;2023-02-13T00:03:28;102994.00;;;8.67;82.54
43125;BME280;49182;50.788;7.318;2023-02-13T00:05:54;102988.78;;;8.65;82.35
43125;BME280;49182;50.788;7.318;2023-02-13T00:08:22;102983.34;;;8.70;82.34
43125;BME280;49182;50.788;7.318;2023-02-13T00:10:49;102981.75;;;8.66;82.34
43125;BME280;49182;50.788;7.318;2023-02-13T00:13:15;102984.44;;;8.64;82.36
43125;BME280;49182;50.788;7.318;2023-02-13T00:15:42;102987.00;;;8.66;82.22
43125;BME280;49182;50.788;7.318;2023-02-13T00:18:08;102979.25;;;8.63;82.47
43125;BME280;49182;50.788;7.318;2023-02-13T00:20:34;102980.88;;;8.65;82.75
43125;BME280;49182;50.788;7.318;2023-02-13T00:23:01;102973.84;;;8.66;81.98
43125;BME280;49182;50.788;7.318;2023-02-13T00:25:29;102970.75;;;8.56;82.53
43125;BME280;49182;50.788;7.318;2023-02-13T00:27:55;102971.41;;;8.61;81.88
43125;BME280;49182;50.788;7.318;2023-02-13T00:30:22;102978.25;;;8.65;82.04
43125;BME280;49182;50.788;7.318;2023-02-13T00:32:49;102972.28;;;8.62;81.91
43125;BME280;49182;50.788;7.318;2023-02-13T00:35:16;102969.16;;;8.52;82.68
43125;BME280;49182;50.788;7.318;2023-02-13T00:37:42;102977.13;;;8.50;82.50
43125;BME280;49182;50.788;7.318;2023-02-13T00:40:09;102978.97;;;8.48;83.11
43125;BME280;49182;50.788;7.318;2023-02-13T00:42:37;102980.06;;;8.43;83.27
43125;BME280;49182;50.788;7.318;2023-02-13T00:45:04;102974.50;;;8.50;82.75
43125;BME280;49182;50.788;7.318;2023-02-13T00:47:31;102985.81;;;8.52;82.65
43125;BME280;49182;50.788;7.318;2023-02-13T00:49:58;102973.63;;;8.50;83.03
43125;BME280;49182;50.788;7.318;2023-02-13T00:52:24;102978.09;;;8.48;83.10
43125;BME280;49182;50.788;7.318;2023-02-13T00:54:51;102978.25;;;8.45;83.20
43125;BME280;49182;50.788;7.318;2023-02-13T00:57:17;102977.13;;;8.50;82.81
43125;BME280;49182;50.788;7.318;2023-02-13T00:59:45;102980.06;;;8.43;83.10
43125;BME280;49182;50.788;7.318;2023-02-13T01:02:12;102970.00;;;8.52;82.71
43125;BME280;49182;50.788;7.318;2023-02-13T01:04:38;102972.47;;;8.57;82.36
43125;BME280;49182;50.788;7.318;2023-02-13T01:07:04;102963.78;;;8.55;82.48
43125;BME280;49182;50.788;7.318;2023-02-13T01:09:31;102972.84;;;8.48;82.74
43125;BME280;49182;50.788;7.318;2023-02-13T01:11:57;102965.75;;;8.50;82.91
43125;BME280;49182;50.788;7.318;2023-02-13T01:14:24;102958.75;;;8.49;82.99
43125;BME280;49182;50.788;7.318;2023-02-13T01:16:52;102953.22;;;8.55;81.88
43125;BME280;49182;50.788;7.318;2023-02-13T01:19:19;102955.31;;;8.47;82.70
43125;BME280;49182;50.788;7.318;2023-02-13T01:21:45;102948.53;;;8.41;83.22
43125;BME280;49182;50.788;7.318;2023-02-13T01:24:11;102944.72;;;8.48;82.47
43125;BME280;49182;50.788;7.318;2023-02-13T01:26:38;102944.78;;;8.47;82.42
43125;BME280;49182;50.788;7.318;2023-02-13T01:29:04;102936.38;;;8.39;82.94
43125;BME280;49182;50.788;7.318;2023-02-13T01:31:31;102948.78;;;8.35;83.25
43125;BME280;49182;50.788;7.318;2023-02-13T01:33:59;102936.63;;;8.33;83.01
43125;BME280;49182;50.788;7.318;2023-02-13T01:36:26;102949.84;;;8.30;83.81
43125;BME280;49182;50.788;7.318;2023-02-13T01:38:53;102945.44;;;8.32;83.57
43125;BME280;49182;50.788;7.318;2023-02-13T01:41:22;102938.25;;;8.35;83.29
43125;BME280;49182;50.788;7.318;2023-02-13T01:43:51;102946.44;;;8.28;83.47
43125;BME280;49182;50.788;7.318;2023-02-13T01:46:21;102941.09;;;8.29;83.93
43125;BME280;49182;50.788;7.318;2023-02-13T01:48:48;102936.38;;;8.39;83.15
43125;BME280;49182;50.788;7.318;2023-02-13T01:51:18;102942.81;;;8.32;83.27
43125;BME280;49182;50.788;7.318;2023-02-13T01:53:47;102933.00;;;8.35;83.33
43125;BME280;49182;50.788;7.318;2023-02-13T01:56:24;102933.19;;;8.31;83.26
43125;BME280;49182;50.788;7.318;2023-02-13T01:58:53;102937.75;;;8.26;84.21
43125;BME280;49182;50.788;7.318;2023-02-13T02:01:21;102936.16;;;8.22;84.18
43125;BME280;49182;50.788;7.318;2023-02-13T02:03:48;102937.59;;;8.30;83.91
43125;BME280;49182;50.788;7.318;2023-02-13T02:06:20;102938.41;;;8.32;83.47
43125;BME280;49182;50.788;7.318;2023-02-13T02:08:48;102942.59;;;8.36;82.97
43125;BME280;49182;50.788;7.318;2023-02-13T02:11:22;102934.66;;;8.38;82.48
43125;BME280;49182;50.788;7.318;2023-02-13T02:13:51;102944.38;;;8.36;82.94
43125;BME280;49182;50.788;7.318;2023-02-13T02:16:28;102952.28;;;8.36;82.63
43125;BME280;49182;50.788;7.318;2023-02-13T02:18:56;102945.56;;;8.27;83.28
43125;BME280;49182;50.788;7.318;2023-02-13T02:21:33;102950.69;;;8.32;83.38
43125;BME280;49182;50.788;7.318;2023-02-13T02:26:53;102945.84;;;8.43;82.53
43125;BME280;49182;50.788;7.318;2023-02-13T02:29:50;102946.38;;;8.29;83.22
43125;BME280;49182;50.788;7.318;2023-02-13T02:32:26;102946.34;;;8.31;82.94
43125;BME280;49182;50.788;7.318;2023-02-13T02:35:03;102943.41;;;8.38;82.39
43125;BME280;49182;50.788;7.318;2023-02-13T02:38:00;102940.78;;;8.38;82.50
43125;BME280;49182;50.788;7.318;2023-02-13T02:40:30;102951.47;;;8.34;82.46
43125;BME280;49182;50.788;7.318;2023-02-13T02:43:07;102951.56;;;8.32;82.62
43125;BME280;49182;50.788;7.318;2023-02-13T02:45:38;102949.78;;;8.33;82.96
43125;BME280;49182;50.788;7.318;2023-02-13T02:48:11;102943.03;;;8.26;82.87
43125;BME280;49182;50.788;7.318;2023-02-13T02:50:42;102942.03;;;8.28;82.75
43125;BME280;49182;50.788;7.318;2023-02-13T02:53:14;102934.00;;;8.33;82.29
43125;BME280;49182;50.788;7.318;2023-02-13T02:55:43;102950.75;;;8.30;82.39
43125;BME280;49182;50.788;7.318;2023-02-13T02:58:15;102949.16;;;8.26;82.65
43125;BME280;49182;50.788;7.318;2023-02-13T03:00:44;102946.38;;;8.29;82.35
43125;BME280;49182;50.788;7.318;2023-02-13T03:03:15;102946.75;;;8.20;82.36
43125;BME280;49182;50.788;7.318;2023-02-13T03:05:42;102947.38;;;8.27;82.25
43125;BME280;49182;50.788;7.318;2023-02-13T03:08:10;102943.75;;;8.29;81.57
43125;BME280;49182;50.788;7.318;2023-02-13T03:10:37;102938.47;;;8.29;81.71
43125;BME280;49182;50.788;7.318;2023-02-13T03:13:05;102939.59;;;8.24;81.86
43125;BME280;49182;50.788;7.318;2023-02-13T03:15:35;102945.22;;;8.15;82.71
43125;BME280;49182;50.788;7.318;2023-02-13T03:18:01;102942.47;;;8.18;82.44
43125;BME280;49182;50.788;7.318;2023-02-13T03:20:33;102947.78;;;8.16;82.72
43125;BME280;49182;50.788;7.318;2023-02-13T03:23:10;102952.75;;;8.24;82.14
43125;BME280;49182;50.788;7.318;2023-02-13T03:25:40;102956.41;;;8.20;82.42
43125;BME280;49182;50.788;7.318;2023-02-13T03:28:14;102961.84;;;8.15;82.07
43125;BME280;49182;50.788;7.318;2023-02-13T03:30:45;102956.06;;;8.07;83.31
43125;BME280;49182;50.788;7.318;2023-02-13T03:33:22;102951.16;;;8.20;81.75
43125;BME280;49182;50.788;7.318;2023-02-13T03:35:55;102964.13;;;8.24;81.85
43125;BME280;49182;50.788;7.318;2023-02-13T03:38:28;102961.53;;;8.23;81.80
43125;BME280;49182;50.788;7.318;2023-02-13T03:40:56;102960.81;;;8.19;82.09
43125;BME280;49182;50.788;7.318;2023-02-13T03:43:24;102960.94;;;8.16;81.83
43125;BME280;49182;50.788;7.318;2023-02-13T03:45:52;102968.16;;;8.11;82.35
43125;BME280;49182;50.788;7.318;2023-02-13T03:48:20;102964.44;;;8.17;81.64
43125;BME280;49182;50.788;7.318;2023-02-13T03:50:48;102953.78;;;8.20;81.64
43125;BME280;49182;50.788;7.318;2023-02-13T03:53:16;102951.16;;;8.20;81.63
43125;BME280;49182;50.788;7.318;2023-02-13T03:55:43;102955.25;;;8.27;81.13
43125;BME280;49182;50.788;7.318;2023-02-13T03:58:13;102952.94;;;8.19;80.88
43125;BME280;49182;50.788;7.318;2023-02-13T04:00:42;102956.41;;;8.20;81.25
43125;BME280;49182;50.788;7.318;2023-02-13T04:03:11;102957.81;;;8.06;81.62
43125;BME280;49182;50.788;7.318;2023-02-13T04:05:40;102959.66;;;8.04;82.48
43125;BME280;49182;50.788;7.318;2023-02-13T04:08:08;102959.78;;;8.01;82.28
43125;BME280;49182;50.788;7.318;2023-02-13T04:10:36;102955.97;;;8.08;82.04
43125;BME280;49182;50.788;7.318;2023-02-13T04:13:09;102958.78;;;8.04;82.11
43125;BME280;49182;50.788;7.318;2023-02-13T04:15:40;102957.28;;;8.20;80.89
43125;BME280;49182;50.788;7.318;2023-02-13T04:18:09;102958.44;;;8.13;81.03
43125;BME280;49182;50.788;7.318;2023-02-13T04:20:38;102957.81;;;8.06;81.69
43125;BME280;49182;50.788;7.318;2023-02-13T04:23:05;102962.22;;;8.06;81.75
43125;BME280;49182;50.788;7.318;2023-02-13T04:25:32;102964.06;;;8.04;81.80
43125;BME280;49182;50.788;7.318;2023-02-13T04:28:00;102963.19;;;8.03;81.63
43125;BME280;49182;50.788;7.318;2023-02-13T04:30:27;102955.97;;;8.08;81.04
43125;BME280;49182;50.788;7.318;2023-02-13T04:32:53;102959.78;;;8.01;81.38
43125;BME280;49182;50.788;7.318;2023-02-13T04:35:19;102950.94;;;8.02;81.28
43125;BME280;49182;50.788;7.318;2023-02-13T04:37:46;102954.75;;;7.95;81.31
43125;BME280;49182;50.788;7.318;2023-02-13T04:40:12;102955.50;;;7.99;81.20
43125;BME280;49182;50.788;7.318;2023-02-13T04:42:39;102955.63;;;7.96;81.32
43125;BME280;49182;50.788;7.318;2023-02-13T04:45:07;102948.22;;;7.84;81.99
43125;BME280;49182;50.788;7.318;2023-02-13T04:47:33;102964.78;;;7.86;81.93
43125;BME280;49182;50.788;7.318;2023-02-13T04:50:00;102969.31;;;7.82;82.00
43125;BME280;49182;50.788;7.318;2023-02-13T04:52:26;102964.09;;;7.81;82.06
43125;BME280;49182;50.788;7.318;2023-02-13T04:54:53;102954.38;;;7.83;82.60
43125;BME280;49182;50.788;7.318;2023-02-13T04:57:19;102953.63;;;7.79;82.44
43125;BME280;49182;50.788;7.318;2023-02-13T04:59:46;102958.16;;;7.76;82.77
43125;BME280;49182;50.788;7.318;2023-02-13T05:02:14;102952.00;;;7.77;82.90
43125;BME280;49182;50.788;7.318;2023-02-13T05:04:40;102947.34;;;7.83;82.63
43125;BME280;49182;50.788;7.318;2023-02-13T05:07:07;102951.66;;;7.84;82.22
43125;BME280;49182;50.788;7.318;2023-02-13T05:09:34;102952.47;;;7.86;82.65
43125;BME280;49182;50.788;7.318;2023-02-13T05:12:00;102956.19;;;7.81;82.70
43125;BME280;49182;50.788;7.318;2023-02-13T05:14:27;102954.63;;;7.77;83.43
43125;BME280;49182;50.788;7.318;2023-02-13T05:16:53;102960.56;;;7.82;82.89
43125;BME280;49182;50.788;7.318;2023-02-13T05:19:21;102948.88;;;7.89;81.47
43125;BME280;49182;50.788;7.318;2023-02-13T05:21:47;102957.78;;;7.85;81.06
43125;BME280;49182;50.788;7.318;2023-02-13T05:24:14;102954.44;;;7.81;80.86
43125;BME280;49182;50.788;7.318;2023-02-13T05:26:40;102952.94;;;7.74;81.32
43125;BME280;49182;50.788;7.318;2023-02-13T05:29:07;102957.41;;;7.72;81.71
43125;BME280;49182;50.788;7.318;2023-02-13T05:31:34;102960.25;;;7.66;81.61
43125;BME280;49182;50.788;7.318;2023-02-13T05:34:00;102948.31;;;7.81;80.36
43125;BME280;49182;50.788;7.318;2023-02-13T05:36:28;102956.25;;;7.79;79.78
43125;BME280;49182;50.788;7.318;2023-02-13T05:38:54;102953.19;;;7.68;80.32
43125;BME280;49182;50.788;7.318;2023-02-13T05:41:21;102955.19;;;7.61;81.17
43125;BME280;49182;50.788;7.318;2023-02-13T05:43:47;102952.91;;;7.52;81.27
43125;BME280;49182;50.788;7.318;2023-02-13T05:46:13;102957.47;;;7.47;81.53
43125;BME280;49182;50.788;7.318;2023-02-13T05:48:40;102957.38;;;7.50;81.72
43125;BME280;49182;50.788;7.318;2023-02-13T05:51:06;102952.84;;;7.54;81.43
43125;BME280;49182;50.788;7.318;2023-02-13T05:53:34;102954.06;;;7.45;82.07
43125;BME280;49182;50.788;7.318;2023-02-13T05:56:01;102955.13;;;7.40;81.69
43125;BME280;49182;50.788;7.318;2023-02-13T05:58:28;102963.34;;;7.30;82.47
43125;BME280;49182;50.788;7.318;2023-02-13T06:00:54;102959.53;;;7.39;81.63
43125;BME280;49182;50.788;7.318;2023-02-13T06:03:22;102955.41;;;7.32;81.86
43125;BME280;49182;50.788;7.318;2023-02-13T06:05:48;102963.06;;;7.38;81.32
43125;BME280;49182;50.788;7.318;2023-02-13T06:08:15;102965.09;;;7.30;81.53
43125;BME280;49182;50.788;7.318;2023-02-13T06:10:43;102967.28;;;7.19;81.92
43125;BME280;49182;50.788;7.318;2023-02-13T06:13:10;102970.75;;;7.19;82.44
43125;BME280;49182;50.788;7.318;2023-02-13T06:15:37;102970.16;;;7.11;82.76
43125;BME280;49182;50.788;7.318;2023-02-13T06:18:03;102971.38;;;7.03;82.61
43125;BME280;49182;50.788;7.318;2023-02-13T06:20:29;102967.19;;;6.97;83.00
43125;BME280;49182;50.788;7.318;2023-02-13T06:22:56;102971.19;;;6.82;84.02
43125;BME280;49182;50.788;7.318;2023-02-13T06:25:22;102967.03;;;6.75;84.55
43125;BME280;49182;50.788;7.318;2023-02-13T06:27:50;102970.28;;;6.83;83.79
43125;BME280;49182;50.788;7.318;2023-02-13T06:30:17;102979.06;;;6.82;83.82
43125;BME280;49182;50.788;7.318;2023-02-13T06:32:44;102977.59;;;6.74;83.96
43125;BME280;49182;50.788;7.318;2023-02-13T06:35:11;102968.19;;;6.67;84.21
43125;BME280;49182;50.788;7.318;2023-02-13T06:37:38;102978.13;;;6.59;84.87
43125;BME280;49182;50.788;7.318;2023-02-13T06:40:06;102976.59;;;6.52;84.67
43125;BME280;49182;50.788;7.318;2023-02-13T06:42:32;102974.41;;;6.38;85.47
43125;BME280;49182;50.788;7.318;2023-02-13T06:45:00;102973.00;;;6.28;86.18
43125;BME280;49182;50.788;7.318;2023-02-13T06:47:27;102972.22;;;6.24;85.84
43125;BME280;49182;50.788;7.318;2023-02-13T06:50:33;102972.09;;;6.29;85.60
43125;BME280;49182;50.788;7.318;2023-02-13T06:53:00;102969.72;;;6.21;85.45
43125;BME280;49182;50.788;7.318;2023-02-13T06:55:27;102965.59;;;6.13;85.91
43125;BME280;49182;50.788;7.318;2023-02-13T06:57:53;102949.66;;;5.92;86.14
43125;BME280;49182;50.788;7.318;2023-02-13T07:00:20;102965.31;;;5.94;86.16
43125;BME280;49182;50.788;7.318;2023-02-13T07:02:47;102969.63;;;5.96;85.86
43125;BME280;49182;50.788;7.318;2023-02-13T07:05:14;102959.50;;;5.83;85.64
43125;BME280;49182;50.788;7.318;2023-02-13T07:07:42;102963.06;;;5.80;85.87
43125;BME280;49182;50.788;7.318;2023-02-13T07:10:11;102961.81;;;5.64;86.11
43125;BME280;49182;50.788;7.318;2023-02-13T07:12:38;102965.44;;;5.60;85.94
43125;BME280;49182;50.788;7.318;2023-02-13T07:15:05;102968.31;;;5.51;86.51
43125;BME280;49182;50.788;7.318;2023-02-13T07:17:32;102963.16;;;5.48;85.98
43125;BME280;49182;50.788;7.318;2023-02-13T07:19:59;102971.31;;;5.37;86.17
43125;BME280;49182;50.788;7.318;2023-02-13T07:22:25;102942.28;;;5.14;87.06
43125;BME280;49182;50.788;7.318;2023-02-13T07:24:53;102968.97;;;5.28;87.24
43125;BME280;49182;50.788;7.318;2023-02-13T07:27:20;102966.81;;;5.11;87.53
43125;BME280;49182;50.788;7.318;2023-02-13T07:29:46;102973.91;;;5.06;87.36
43125;BME280;49182;50.788;7.318;2023-02-13T07:32:14;102937.16;;;4.78;87.63
43125;BME280;49182;50.788;7.318;2023-02-13T07:34:40;102978.63;;;4.94;88.23
43125;BME280;49182;50.788;7.318;2023-02-13T07:37:26;102951.97;;;4.79;88.74
43125;BME280;49182;50.788;7.318;2023-02-13T07:39:54;102969.31;;;4.82;88.74
43125;BME280;49182;50.788;7.318;2023-02-13T07:42:21;102969.31;;;4.82;89.24
43125;BME280;49182;50.788;7.318;2023-02-13T07:44:48;102969.56;;;4.73;89.57
43125;BME280;49182;50.788;7.318;2023-02-13T07:47:14;102951.44;;;4.65;89.88
43125;BME280;49182;50.788;7.318;2023-02-13T07:49:44;102966.22;;;4.68;89.92
43125;BME280;49182;50.788;7.318;2023-02-13T07:52:10;102964.50;;;4.67;90.75
43125;BME280;49182;50.788;7.318;2023-02-13T07:54:37;102973.09;;;4.70;90.16
43125;BME280;49182;50.788;7.318;2023-02-13T07:57:05;102966.25;;;4.66;90.56
43125;BME280;49182;50.788;7.318;2023-02-13T07:59:31;102962.00;;;4.62;90.18
43125;BME280;49182;50.788;7.318;2023-02-13T08:01:58;102975.78;;;4.69;90.61
43125;BME280;49182;50.788;7.318;2023-02-13T08:04:25;102970.50;;;4.70;90.40
43125;BME280;49182;50.788;7.318;2023-02-13T08:06:51;102977.31;;;4.76;90.35
43125;BME280;49182;50.788;7.318;2023-02-13T08:09:19;102972.84;;;4.81;90.83
43125;BME280;49182;50.788;7.318;2023-02-13T08:11:46;102977.09;;;4.85;90.40
43125;BME280;49182;50.788;7.318;2023-02-13T08:14:14;102955.44;;;4.80;91.20
43125;BME280;49182;50.788;7.318;2023-02-13T08:16:40;102972.38;;;4.99;91.48
43125;BME280;49182;50.788;7.318;2023-02-13T08:19:07;102970.22;;;5.13;90.53
43125;BME280;49182;50.788;7.318;2023-02-13T08:21:33;102976.16;;;5.20;90.14
43125;BME280;49182;50.788;7.318;2023-02-13T08:24:00;102960.41;;;5.21;89.75
43125;BME280;49182;50.788;7.318;2023-02-13T08:26:26;102976.69;;;5.33;90.36
43125;BME280;49182;50.788;7.318;2023-02-13T08:28:53;102976.78;;;5.29;90.86
43125;BME280;49182;50.788;7.318;2023-02-13T08:31:21;102974.94;;;5.33;91.02
43125;BME280;49182;50.788;7.318;2023-02-13T08:33:48;102960.91;;;5.36;91.06
43125;BME280;49182;50.788;7.318;2023-02-13T08:36:14;102980.69;;;5.46;91.09
43125;BME280;49182;50.788;7.318;2023-02-13T08:38:41;102972.69;;;5.50;91.65
43125;BME280;49182;50.788;7.318;2023-02-13T08:41:08;102969.88;;;5.56;91.55
43125;BME280;49182;50.788;7.318;2023-02-13T08:43:34;102979.13;;;5.69;92.00
43125;BME280;49182;50.788;7.318;2023-02-13T08:46:01;102973.69;;;5.76;91.46
43125;BME280;49182;50.788;7.318;2023-02-13T08:48:28;102987.16;;;5.94;91.83
43125;BME280;49182;50.788;7.318;2023-02-13T08:50:55;102986.78;;;6.06;91.16
43125;BME280;49182;50.788;7.318;2023-02-13T08:53:22;102985.50;;;6.20;90.33
43125;BME280;49182;50.788;7.318;2023-02-13T08:55:52;102985.16;;;6.30;90.21
43125;BME280;49182;50.788;7.318;2023-02-13T08:58:19;102983.84;;;6.43;89.01
43125;BME280;49182;50.788;7.318;2023-02-13T09:00:45;102988.50;;;6.62;88.47
43125;BME280;49182;50.788;7.318;2023-02-13T09:03:12;102979.56;;;6.67;87.77
43125;BME280;49182;50.788;7.318;2023-02-13T09:05:40;102979.16;;;6.79;86.79
43125;BME280;49182;50.788;7.318;2023-02-13T09:08:07;102977.91;;;6.91;86.14
43125;BME280;49182;50.788;7.318;2023-02-13T09:10:33;102980.19;;;7.00;85.36
43125;BME280;49182;50.788;7.318;2023-02-13T09:13:00;102974.19;;;7.21;83.72
43125;BME280;49182;50.788;7.318;2023-02-13T09:15:26;102989.56;;;7.32;82.91
43125;BME280;49182;50.788;7.318;2023-02-13T09:17:53;102978.88;;;7.37;82.73
43125;BME280;49182;50.788;7.318;2023-02-13T09:20:19;102982.78;;;7.50;81.89
43125;BME280;49182;50.788;7.318;2023-02-13T09:22:48;102996.44;;;7.59;81.56
43125;BME280;49182;50.788;7.318;2023-02-13T09:25:14;102975.13;;;7.67;80.72
43125;BME280;49182;50.788;7.318;2023-02-13T09:27:41;102993.19;;;7.76;80.30
43125;BME280;49182;50.788;7.318;2023-02-13T09:30:09;102988.34;;;7.89;79.84
43125;BME280;49182;50.788;7.318;2023-02-13T09:32:36;102986.44;;;7.92;79.44
43125;BME280;49182;50.788;7.318;2023-02-13T09:35:02;102980.97;;;7.97;79.93
43125;BME280;49182;50.788;7.318;2023-02-13T09:37:29;102981.31;;;8.11;79.35
43125;BME280;49182;50.788;7.318;2023-02-13T09:39:57;102987.91;;;8.21;78.17
43125;BME280;49182;50.788;7.318;2023-02-13T09:42:27;102985.63;;;8.35;76.68
43125;BME280;49182;50.788;7.318;2023-02-13T09:44:57;102979.94;;;8.46;75.65
43125;BME280;49182;50.788;7.318;2023-02-13T09:47:28;102986.00;;;8.48;75.58
43125;BME280;49182;50.788;7.318;2023-02-13T09:49:59;102984.63;;;8.60;75.58
43125;BME280;49182;50.788;7.318;2023-02-13T09:52:31;102984.28;;;8.69;75.43
43125;BME280;49182;50.788;7.318;2023-02-13T09:55:01;102919.63;;;8.40;74.84
43125;BME280;49182;50.788;7.318;2023-02-13T09:57:30;102983.59;;;8.84;74.92
43125;BME280;49182;50.788;7.318;2023-02-13T10:00:05;102983.81;;;9.00;72.67
43125;BME280;49182;50.788;7.318;2023-02-13T10:02:42;102981.19;;;9.00;72.04
43125;BME280;49182;50.788;7.318;2023-02-13T10:05:23;102974.31;;;9.16;72.44
43125;BME280;49182;50.788;7.318;2023-02-13T10:08:03;102979.78;;;9.31;70.72
43125;BME280;49182;50.788;7.318;2023-02-13T10:10:43;102982.91;;;9.40;70.72
43125;BME280;49182;50.788;7.318;2023-02-13T10:13:23;102982.00;;;9.41;70.34
43125;BME280;49182;50.788;7.318;2023-02-13T10:16:01;102979.63;;;9.55;69.71
43125;BME280;49182;50.788;7.318;2023-02-13T10:18:41;102977.56;;;9.61;68.81
43125;BME280;49182;50.788;7.318;2023-02-13T10:21:10;102976.53;;;9.64;69.02
43125;BME280;49182;50.788;7.318;2023-02-13T10:23:39;102980.78;;;9.68;68.58
43125;BME280;49182;50.788;7.318;2023-02-13T10:26:11;102981.97;;;9.80;68.28
43125;BME280;49182;50.788;7.318;2023-02-13T10:28:45;102957.50;;;9.76;69.14
43125;BME280;49182;50.788;7.318;2023-02-13T10:31:16;102955.16;;;9.89;68.16
43125;BME280;49182;50.788;7.318;2023-02-13T10:33:48;102969.47;;;10.02;67.76
43125;BME280;49182;50.788;7.318;2023-02-13T10:36:17;102951.81;;;10.04;68.63
43125;BME280;49182;50.788;7.318;2023-02-13T10:38:53;102964.06;;;10.24;66.79
43125;BME280;49182;50.788;7.318;2023-02-13T10:41:27;102967.91;;;10.35;66.24
43125;BME280;49182;50.788;7.318;2023-02-13T10:44:08;102969.09;;;10.47;65.50
43125;BME280;49182;50.788;7.318;2023-02-13T10:46:43;102967.31;;;10.47;66.84
43125;BME280;49182;50.788;7.318;2023-02-13T10:49:26;102956.25;;;10.57;66.16
43125;BME280;49182;50.788;7.318;2023-02-13T10:52:04;102960.53;;;10.76;64.90
43125;BME280;49182;50.788;7.318;2023-02-13T10:54:51;102963.81;;;10.81;65.03
43125;BME280;49182;50.788;7.318;2023-02-13T10:57:27;102963.19;;;10.93;64.76
43125;BME280;49182;50.788;7.318;2023-02-13T11:00:04;102956.50;;;11.04;63.69
43125;BME280;49182;50.788;7.318;2023-02-13T11:02:31;102952.16;;;11.03;62.91
43125;BME280;49182;50.788;7.318;2023-02-13T11:05:00;102945.59;;;11.10;63.24
43125;BME280;49182;50.788;7.318;2023-02-13T11:07:29;102939.50;;;11.25;63.08
43125;BME280;49182;50.788;7.318;2023-02-13T11:09:59;102940.47;;;11.40;62.48
43125;BME280;49182;50.788;7.318;2023-02-13T11:12:31;102931.28;;;11.47;62.10
43125;BME280;49182;50.788;7.318;2023-02-13T11:15:00;102933.84;;;11.64;61.28
43125;BME280;49182;50.788;7.318;2023-02-13T11:17:29;102923.56;;;11.75;61.16
43125;BME280;49182;50.788;7.318;2023-02-13T11:19:59;102929.88;;;11.88;59.96
43125;BME280;49182;50.788;7.318;2023-02-13T11:22:30;102918.28;;;11.91;59.19
43125;BME280;49182;50.788;7.318;2023-02-13T11:24:59;102918.59;;;12.00;59.17
43125;BME280;49182;50.788;7.318;2023-02-13T11:27:31;102916.47;;;12.07;57.91
43125;BME280;49182;50.788;7.318;2023-02-13T11:29:58;102919.69;;;12.12;58.22
43125;BME280;49182;50.788;7.318;2023-02-13T11:32:26;102917.63;;;12.17;59.04
43125;BME280;49182;50.788;7.318;2023-02-13T11:34:53;102913.25;;;12.32;57.79
43125;BME280;49182;50.788;7.318;2023-02-13T11:37:23;102905.72;;;12.40;56.69
43125;BME280;49182;50.788;7.318;2023-02-13T11:39:51;102902.50;;;12.49;58.18
43125;BME280;49182;50.788;7.318;2023-02-13T11:42:25;102892.97;;;12.61;57.42
43125;BME280;49182;50.788;7.318;2023-02-13T11:44:56;102897.91;;;12.67;55.96
43125;BME280;49182;50.788;7.318;2023-02-13T11:47:31;102895.19;;;12.68;56.10
43125;BME280;49182;50.788;7.318;2023-02-13T11:49:59;102891.66;;;12.68;57.20
43125;BME280;49182;50.788;7.318;2023-02-13T11:52:27;102893.66;;;12.78;56.11
43125;BME280;49182;50.788;7.318;2023-02-13T11:54:56;102885.25;;;12.86;56.63
43125;BME280;49182;50.788;7.318;2023-02-13T11:57:27;102877.50;;;12.97;56.50
43125;BME280;49182;50.788;7.318;2023-02-13T11:59:57;102878.34;;;13.12;54.70
43125;BME280;49182;50.788;7.318;2023-02-13T12:02:26;102881.69;;;13.15;55.01
43125;BME280;49182;50.788;7.318;2023-02-13T12:04:55;102875.91;;;13.23;54.92
43125;BME280;49182;50.788;7.318;2023-02-13T12:07:39;102861.78;;;13.22;54.89
43125;BME280;49182;50.788;7.318;2023-02-13T12:10:16;102866.16;;;13.38;53.64
43125;BME280;49182;50.788;7.318;2023-02-13T12:12:47;102857.44;;;13.35;53.58
43125;BME280;49182;50.788;7.318;2023-02-13T12:15:20;102865.94;;;13.41;53.50
43125;BME280;49182;50.788;7.318;2023-02-13T12:17:54;102859.78;;;13.40;53.79
43125;BME280;49182;50.788;7.318;2023-02-13T12:20:24;102859.31;;;13.48;53.66
43125;BME280;49182;50.788;7.318;2023-02-13T12:23:00;102859.66;;;13.56;53.77
43125;BME280;49182;50.788;7.318;2023-02-13T12:25:36;102850.25;;;13.64;53.04
43125;BME280;49182;50.788;7.318;2023-02-13T12:28:11;102851.78;;;13.68;52.07
43125;BME280;49182;50.788;7.318;2023-02-13T12:30:46;102846.91;;;13.75;53.18
43125;BME280;49182;50.788;7.318;2023-02-13T12:33:26;102841.28;;;13.80;53.08
43125;BME280;49182;50.788;7.318;2023-02-13T12:36:01;102837.06;;;13.90;52.78
43125;BME280;49182;50.788;7.318;2023-02-13T12:38:44;102836.91;;;14.05;52.58
43125;BME280;49182;50.788;7.318;2023-02-13T12:41:19;102825.22;;;14.08;51.79
43125;BME280;49182;50.788;7.318;2023-02-13T12:44:03;102827.81;;;14.22;52.10
43125;BME280;49182;50.788;7.318;2023-02-13T12:46:41;102826.63;;;14.26;51.90
43125;BME280;49182;50.788;7.318;2023-02-13T12:49:24;102828.25;;;14.29;51.32
43125;BME280;49182;50.788;7.318;2023-02-13T12:52:06;102810.69;;;14.26;52.38
43125;BME280;49182;50.788;7.318;2023-02-13T12:54:45;102809.38;;;14.46;51.12
43125;BME280;49182;50.788;7.318;2023-02-13T12:57:23;102809.28;;;14.47;50.41
43125;BME280;49182;50.788;7.318;2023-02-13T13:00:13;102804.91;;;14.46;51.98
43125;BME280;49182;50.788;7.318;2023-02-13T13:03:05;102800.88;;;14.53;51.54
43125;BME280;49182;50.788;7.318;2023-02-13T13:05:47;102786.53;;;14.56;51.09
43125;BME280;49182;50.788;7.318;2023-02-13T13:08:53;102798.75;;;14.71;50.87
43125;BME280;49182;50.788;7.318;2023-02-13T13:11:36;102790.66;;;14.73;51.34
43125;BME280;49182;50.788;7.318;2023-02-13T13:14:13;102769.91;;;14.78;50.18